sensor_id;sensor_type;location;lat;lon;timestamp;P1;durP1;ratioP1;P2;durP2;ratioP2
13753;SDS011;6948;51.216;6.778;2023-04-24T00:00:14;2.23;;;1.30;;
13753;SDS011;6948;51.216;6.778;2023-04-24T00:02:41;2.77;;;1.60;;
13753;SDS011;6948;51.216;6.778;2023-04-24T00:05:11;1.40;;;1.30;;
13753;SDS011;6948;51.216;6.778;2023-04-24T00:07:37;2.00;;;1.30;;
13753;SDS011;6948;51.216;6.778;2023-04-24T00:10:03;1.40;;;1.30;;
13753;SDS011;6948;51.216;6.778;2023-04-24T00:12:30;2.10;;;1.50;;
13753;SDS011;6948;51.216;6.778;2023-04-24T00:14:56;1.97;;;1.30;;
13753;SDS011;6948;51.216;6.778;2023-04-24T00:17:21;2.30;;;1.60;;
13753;SDS011;6948;51.216;6.778;2023-04-24T00:19:47;1.80;;;1.50;;
13753;SDS011;6948;51.216;6.778;2023-04-24T00:22:13;1.67;;;1.30;;
13753;SDS011;6948;51.216;6.778;2023-04-24T00:24:39;2.33;;;1.60;;
13753;SDS011;6948;51.216;6.778;2023-04-24T00:27:05;1.40;;;1.30;;
13753;SDS011;6948;51.216;6.778;2023-04-24T00:29:31;2.80;;;1.53;;
13753;SDS011;6948;51.216;6.778;2023-04-24T00:31:56;3.03;;;1.60;;
13753;SDS011;6948;51.216;6.778;2023-04-24T00:34:22;1.50;;;1.40;;
13753;SDS011;6948;51.216;6.778;2023-04-24T00:36:48;2.53;;;1.40;;
13753;SDS011;6948;51.216;6.778;2023-04-24T00:39:18;2.37;;;1.73;;
13753;SDS011;6948;51.216;6.778;2023-04-24T00:41:45;2.47;;;1.60;;
13753;SDS011;6948;51.216;6.778;2023-04-24T00:44:11;1.63;;;1.50;;
13753;SDS011;6948;51.216;6.778;2023-04-24T00:46:36;1.50;;;1.40;;
13753;SDS011;6948;51.216;6.778;2023-04-24T00:49:03;2.40;;;1.60;;
13753;SDS011;6948;51.216;6.778;2023-04-24T00:51:31;1.97;;;1.33;;
13753;SDS011;6948;51.216;6.778;2023-04-24T00:53:58;3.13;;;1.80;;
13753;SDS011;6948;51.216;6.778;2023-04-24T00:56:24;2.60;;;1.60;;
13753;SDS011;6948;51.216;6.778;2023-04-24T00:58:50;3.10;;;1.50;;
13753;SDS011;6948;51.216;6.778;2023-04-24T01:01:16;4.40;;;1.70;;
13753;SDS011;6948;51.216;6.778;2023-04-24T01:03:45;2.67;;;1.67;;
13753;SDS011;6948;51.216;6.778;2023-04-24T01:06:11;2.73;;;1.87;;
13753;SDS011;6948;51.216;6.778;2023-04-24T01:08:37;2.50;;;2.03;;
13753;SDS011;6948;51.216;6.778;2023-04-24T01:11:04;2.47;;;2.03;;
13753;SDS011;6948;51.216;6.778;2023-04-24T01:13:31;2.00;;;1.80;;
13753;SDS011;6948;51.216;6.778;2023-04-24T01:15:57;3.87;;;2.30;;
13753;SDS011;6948;51.216;6.778;2023-04-24T01:18:23;3.63;;;2.40;;
13753;SDS011;6948;51.216;6.778;2023-04-24T01:20:50;3.77;;;2.97;;
13753;SDS011;6948;51.216;6.778;2023-04-24T01:23:18;6.33;;;3.60;;
13753;SDS011;6948;51.216;6.778;2023-04-24T01:25:44;4.67;;;3.60;;
13753;SDS011;6948;51.216;6.778;2023-04-24T01:28:10;4.60;;;3.63;;
13753;SDS011;6948;51.216;6.778;2023-04-24T01:30:36;4.33;;;3.83;;
13753;SDS011;6948;51.216;6.778;2023-04-24T01:33:02;5.50;;;3.80;;
13753;SDS011;6948;51.216;6.778;2023-04-24T01:35:27;6.83;;;4.37;;
13753;SDS011;6948;51.216;6.778;2023-04-24T01:37:53;5.70;;;4.83;;
13753;SDS011;6948;51.216;6.778;2023-04-24T01:40:19;4.60;;;4.20;;
13753;SDS011;6948;51.216;6.778;2023-04-24T01:42:45;5.67;;;5.13;;
13753;SDS011;6948;51.216;6.778;2023-04-24T01:45:12;6.33;;;5.43;;
13753;SDS011;6948;51.216;6.778;2023-04-24T01:47:38;7.27;;;5.80;;
13753;SDS011;6948;51.216;6.778;2023-04-24T01:50:05;6.57;;;5.67;;
13753;SDS011;6948;51.216;6.778;2023-04-24T01:52:31;7.33;;;5.20;;
13753;SDS011;6948;51.216;6.778;2023-04-24T01:54:59;7.67;;;5.70;;
13753;SDS011;6948;51.216;6.778;2023-04-24T01:57:25;6.43;;;5.77;;
13753;SDS011;6948;51.216;6.778;2023-04-24T01:59:51;7.73;;;6.37;;
13753;SDS011;6948;51.216;6.778;2023-04-24T02:02:17;7.00;;;6.07;;
13753;SDS011;6948;51.216;6.778;2023-04-24T02:04:42;8.00;;;6.47;;
13753;SDS011;6948;51.216;6.778;2023-04-24T02:07:08;8.17;;;6.80;;
13753;SDS011;6948;51.216;6.778;2023-04-24T02:09:34;8.67;;;6.67;;
13753;SDS011;6948;51.216;6.778;2023-04-24T02:12:00;11.27;;;7.13;;
13753;SDS011;6948;51.216;6.778;2023-04-24T02:14:25;8.47;;;6.77;;
13753;SDS011;6948;51.216;6.778;2023-04-24T02:16:51;8.37;;;6.70;;
13753;SDS011;6948;51.216;6.778;2023-04-24T02:19:18;8.67;;;6.60;;
13753;SDS011;6948;51.216;6.778;2023-04-24T02:21:44;7.87;;;6.37;;
13753;SDS011;6948;51.216;6.778;2023-04-24T02:24:09;8.43;;;6.50;;
13753;SDS011;6948;51.216;6.778;2023-04-24T02:26:35;8.53;;;6.20;;
13753;SDS011;6948;51.216;6.778;2023-04-24T02:29:01;8.73;;;6.83;;
13753;SDS011;6948;51.216;6.778;2023-04-24T02:31:26;8.70;;;7.33;;
13753;SDS011;6948;51.216;6.778;2023-04-24T02:33:52;9.73;;;7.23;;
13753;SDS011;6948;51.216;6.778;2023-04-24T02:36:18;11.93;;;8.27;;
13753;SDS011;6948;51.216;6.778;2023-04-24T02:38:43;8.17;;;7.17;;
13753;SDS011;6948;51.216;6.778;2023-04-24T02:41:09;11.60;;;8.17;;
13753;SDS011;6948;51.216;6.778;2023-04-24T02:43:35;10.03;;;8.07;;
13753;SDS011;6948;51.216;6.778;2023-04-24T02:46:00;10.10;;;7.53;;
13753;SDS011;6948;51.216;6.778;2023-04-24T02:48:26;11.97;;;7.87;;
13753;SDS011;6948;51.216;6.778;2023-04-24T02:50:52;10.70;;;7.63;;
13753;SDS011;6948;51.216;6.778;2023-04-24T02:53:18;9.20;;;7.43;;
13753;SDS011;6948;51.216;6.778;2023-04-24T02:55:43;10.77;;;8.23;;
13753;SDS011;6948;51.216;6.778;2023-04-24T02:58:09;9.57;;;8.00;;
13753;SDS011;6948;51.216;6.778;2023-04-24T03:00:35;11.30;;;8.37;;
13753;SDS011;6948;51.216;6.778;2023-04-24T03:03:01;12.87;;;8.50;;
13753;SDS011;6948;51.216;6.778;2023-04-24T03:05:27;8.60;;;7.70;;
13753;SDS011;6948;51.216;6.778;2023-04-24T03:07:53;15.63;;;8.47;;
13753;SDS011;6948;51.216;6.778;2023-04-24T03:10:18;11.50;;;8.27;;
13753;SDS011;6948;51.216;6.778;2023-04-24T03:12:44;10.97;;;7.53;;
13753;SDS011;6948;51.216;6.778;2023-04-24T03:15:10;11.27;;;8.23;;
13753;SDS011;6948;51.216;6.778;2023-04-24T03:17:36;10.93;;;8.00;;
13753;SDS011;6948;51.216;6.778;2023-04-24T03:20:02;11.33;;;7.97;;
13753;SDS011;6948;51.216;6.778;2023-04-24T03:22:28;10.30;;;7.97;;
13753;SDS011;6948;51.216;6.778;2023-04-24T03:24:54;9.37;;;8.07;;
13753;SDS011;6948;51.216;6.778;2023-04-24T03:27:20;14.33;;;8.03;;
13753;SDS011;6948;51.216;6.778;2023-04-24T03:29:46;10.73;;;7.83;;
13753;SDS011;6948;51.216;6.778;2023-04-24T03:32:11;9.60;;;7.70;;
13753;SDS011;6948;51.216;6.778;2023-04-24T03:34:37;10.00;;;7.70;;
13753;SDS011;6948;51.216;6.778;2023-04-24T03:37:02;8.17;;;7.37;;
13753;SDS011;6948;51.216;6.778;2023-04-24T03:39:28;9.63;;;7.90;;
13753;SDS011;6948;51.216;6.778;2023-04-24T03:41:53;12.03;;;7.97;;
13753;SDS011;6948;51.216;6.778;2023-04-24T03:44:19;7.73;;;7.03;;
13753;SDS011;6948;51.216;6.778;2023-04-24T03:46:45;12.40;;;8.27;;
13753;SDS011;6948;51.216;6.778;2023-04-24T03:49:10;8.87;;;7.93;;
13753;SDS011;6948;51.216;6.778;2023-04-24T03:51:36;10.30;;;7.87;;
13753;SDS011;6948;51.216;6.778;2023-04-24T03:54:02;9.87;;;7.83;;
13753;SDS011;6948;51.216;6.778;2023-04-24T03:56:28;9.57;;;7.93;;
13753;SDS011;6948;51.216;6.778;2023-04-24T03:58:53;10.03;;;8.20;;
13753;SDS011;6948;51.216;6.778;2023-04-24T04:01:19;9.17;;;7.57;;
13753;SDS011;6948;51.216;6.778;2023-04-24T04:03:45;11.73;;;8.73;;
13753;SDS011;6948;51.216;6.778;2023-04-24T04:06:11;11.50;;;8.17;;
13753;SDS011;6948;51.216;6.778;2023-04-24T04:08:38;11.40;;;8.27;;
13753;SDS011;6948;51.216;6.778;2023-04-24T04:11:03;12.13;;;8.50;;
13753;SDS011;6948;51.216;6.778;2023-04-24T04:13:29;10.93;;;8.07;;
13753;SDS011;6948;51.216;6.778;2023-04-24T04:15:55;11.60;;;8.17;;
13753;SDS011;6948;51.216;6.778;2023-04-24T04:18:20;10.67;;;8.00;;
13753;SDS011;6948;51.216;6.778;2023-04-24T04:20:46;10.60;;;8.00;;
13753;SDS011;6948;51.216;6.778;2023-04-24T04:23:11;11.77;;;8.30;;
13753;SDS011;6948;51.216;6.778;2023-04-24T04:25:37;11.07;;;8.07;;
13753;SDS011;6948;51.216;6.778;2023-04-24T04:28:03;9.47;;;7.30;;
13753;SDS011;6948;51.216;6.778;2023-04-24T04:30:28;13.27;;;7.47;;
13753;SDS011;6948;51.216;6.778;2023-04-24T04:32:57;9.23;;;7.60;;
13753;SDS011;6948;51.216;6.778;2023-04-24T04:35:23;11.03;;;7.73;;
13753;SDS011;6948;51.216;6.778;2023-04-24T04:37:49;8.87;;;7.03;;
13753;SDS011;6948;51.216;6.778;2023-04-24T04:40:16;10.83;;;7.20;;
13753;SDS011;6948;51.216;6.778;2023-04-24T04:42:42;10.30;;;7.73;;
13753;SDS011;6948;51.216;6.778;2023-04-24T04:45:11;8.33;;;7.03;;
13753;SDS011;6948;51.216;6.778;2023-04-24T04:47:37;10.07;;;7.23;;
13753;SDS011;6948;51.216;6.778;2023-04-24T04:50:03;8.47;;;7.57;;
13753;SDS011;6948;51.216;6.778;2023-04-24T04:52:30;11.27;;;7.77;;
13753;SDS011;6948;51.216;6.778;2023-04-24T04:54:56;8.73;;;7.83;;
13753;SDS011;6948;51.216;6.778;2023-04-24T04:57:22;9.57;;;8.20;;
13753;SDS011;6948;51.216;6.778;2023-04-24T04:59:48;10.93;;;8.20;;
13753;SDS011;6948;51.216;6.778;2023-04-24T05:02:13;10.33;;;8.40;;
13753;SDS011;6948;51.216;6.778;2023-04-24T05:04:39;10.07;;;8.40;;
13753;SDS011;6948;51.216;6.778;2023-04-24T05:07:05;9.00;;;7.50;;
13753;SDS011;6948;51.216;6.778;2023-04-24T05:09:31;11.00;;;8.07;;
13753;SDS011;6948;51.216;6.778;2023-04-24T05:11:56;8.07;;;7.27;;
13753;SDS011;6948;51.216;6.778;2023-04-24T05:14:22;11.17;;;7.27;;
13753;SDS011;6948;51.216;6.778;2023-04-24T05:16:48;10.03;;;7.40;;
13753;SDS011;6948;51.216;6.778;2023-04-24T05:19:14;7.57;;;6.77;;
13753;SDS011;6948;51.216;6.778;2023-04-24T05:21:40;8.13;;;7.00;;
13753;SDS011;6948;51.216;6.778;2023-04-24T05:24:06;9.60;;;6.97;;
13753;SDS011;6948;51.216;6.778;2023-04-24T05:26:32;7.40;;;6.57;;
13753;SDS011;6948;51.216;6.778;2023-04-24T05:28:57;7.53;;;6.83;;
13753;SDS011;6948;51.216;6.778;2023-04-24T05:31:23;9.93;;;7.37;;
13753;SDS011;6948;51.216;6.778;2023-04-24T05:33:49;11.13;;;7.50;;
13753;SDS011;6948;51.216;6.778;2023-04-24T05:36:14;11.03;;;7.00;;
13753;SDS011;6948;51.216;6.778;2023-04-24T05:38:40;10.93;;;7.07;;
13753;SDS011;6948;51.216;6.778;2023-04-24T05:41:06;7.63;;;6.87;;
13753;SDS011;6948;51.216;6.778;2023-04-24T05:43:31;9.27;;;7.60;;
13753;SDS011;6948;51.216;6.778;2023-04-24T05:45:57;8.13;;;6.53;;
13753;SDS011;6948;51.216;6.778;2023-04-24T05:48:22;9.90;;;6.57;;
13753;SDS011;6948;51.216;6.778;2023-04-24T05:50:48;8.10;;;6.80;;
13753;SDS011;6948;51.216;6.778;2023-04-24T05:53:14;9.97;;;6.70;;
13753;SDS011;6948;51.216;6.778;2023-04-24T05:55:40;7.87;;;6.77;;
13753;SDS011;6948;51.216;6.778;2023-04-24T05:58:06;8.50;;;6.90;;
13753;SDS011;6948;51.216;6.778;2023-04-24T06:00:31;7.83;;;6.53;;
13753;SDS011;6948;51.216;6.778;2023-04-24T06:02:59;6.97;;;6.27;;
13753;SDS011;6948;51.216;6.778;2023-04-24T06:05:25;8.80;;;6.53;;
13753;SDS011;6948;51.216;6.778;2023-04-24T06:07:51;6.87;;;6.17;;
13753;SDS011;6948;51.216;6.778;2023-04-24T06:10:17;8.00;;;6.17;;
13753;SDS011;6948;51.216;6.778;2023-04-24T06:12:43;8.50;;;6.40;;
13753;SDS011;6948;51.216;6.778;2023-04-24T06:15:08;7.73;;;6.43;;
13753;SDS011;6948;51.216;6.778;2023-04-24T06:17:35;6.90;;;5.93;;
13753;SDS011;6948;51.216;6.778;2023-04-24T06:20:00;6.67;;;6.03;;
13753;SDS011;6948;51.216;6.778;2023-04-24T06:22:26;6.13;;;5.53;;
13753;SDS011;6948;51.216;6.778;2023-04-24T06:24:52;7.40;;;6.57;;
13753;SDS011;6948;51.216;6.778;2023-04-24T06:27:17;7.30;;;6.60;;
13753;SDS011;6948;51.216;6.778;2023-04-24T06:29:43;6.70;;;5.37;;
13753;SDS011;6948;51.216;6.778;2023-04-24T06:32:08;6.47;;;5.40;;
13753;SDS011;6948;51.216;6.778;2023-04-24T06:34:34;8.07;;;5.50;;
13753;SDS011;6948;51.216;6.778;2023-04-24T06:37:00;6.07;;;5.17;;
13753;SDS011;6948;51.216;6.778;2023-04-24T06:39:26;6.10;;;5.50;;
13753;SDS011;6948;51.216;6.778;2023-04-24T06:41:51;8.07;;;5.60;;
13753;SDS011;6948;51.216;6.778;2023-04-24T06:44:17;4.97;;;4.50;;
13753;SDS011;6948;51.216;6.778;2023-04-24T06:46:43;5.10;;;4.60;;
13753;SDS011;6948;51.216;6.778;2023-04-24T06:49:09;5.83;;;4.37;;
13753;SDS011;6948;51.216;6.778;2023-04-24T06:51:34;9.93;;;7.90;;
13753;SDS011;6948;51.216;6.778;2023-04-24T06:54:00;5.27;;;4.77;;
13753;SDS011;6948;51.216;6.778;2023-04-24T06:56:26;5.07;;;4.57;;
13753;SDS011;6948;51.216;6.778;2023-04-24T06:58:54;6.13;;;4.80;;
13753;SDS011;6948;51.216;6.778;2023-04-24T07:01:19;6.93;;;6.10;;
13753;SDS011;6948;51.216;6.778;2023-04-24T07:03:45;5.47;;;4.97;;
13753;SDS011;6948;51.216;6.778;2023-04-24T07:06:11;5.40;;;4.63;;
13753;SDS011;6948;51.216;6.778;2023-04-24T07:08:37;5.20;;;4.70;;
13753;SDS011;6948;51.216;6.778;2023-04-24T07:11:03;7.20;;;5.30;;
13753;SDS011;6948;51.216;6.778;2023-04-24T07:13:29;4.63;;;4.23;;
13753;SDS011;6948;51.216;6.778;2023-04-24T07:15:54;5.53;;;3.93;;
13753;SDS011;6948;51.216;6.778;2023-04-24T07:18:21;4.13;;;3.40;;
13753;SDS011;6948;51.216;6.778;2023-04-24T07:20:47;13.37;;;12.10;;
13753;SDS011;6948;51.216;6.778;2023-04-24T07:23:15;3.27;;;2.90;;
13753;SDS011;6948;51.216;6.778;2023-04-24T07:25:41;4.97;;;3.10;;
13753;SDS011;6948;51.216;6.778;2023-04-24T07:28:06;2.90;;;2.60;;
13753;SDS011;6948;51.216;6.778;2023-04-24T07:30:32;4.90;;;2.90;;
13753;SDS011;6948;51.216;6.778;2023-04-24T07:32:58;3.37;;;2.63;;
13753;SDS011;6948;51.216;6.778;2023-04-24T07:35:24;4.27;;;2.77;;
13753;SDS011;6948;51.216;6.778;2023-04-24T07:37:51;2.27;;;1.73;;
13753;SDS011;6948;51.216;6.778;2023-04-24T07:40:18;2.20;;;1.70;;
13753;SDS011;6948;51.216;6.778;2023-04-24T07:42:43;2.70;;;1.70;;
13753;SDS011;6948;51.216;6.778;2023-04-24T07:45:09;2.57;;;1.43;;
13753;SDS011;6948;51.216;6.778;2023-04-24T07:47:35;2.63;;;1.70;;
13753;SDS011;6948;51.216;6.778;2023-04-24T07:50:02;2.90;;;1.40;;
13753;SDS011;6948;51.216;6.778;2023-04-24T07:52:28;1.60;;;1.20;;
13753;SDS011;6948;51.216;6.778;2023-04-24T07:54:54;1.20;;;1.07;;
13753;SDS011;6948;51.216;6.778;2023-04-24T07:57:23;2.67;;;1.30;;
13753;SDS011;6948;51.216;6.778;2023-04-24T07:59:50;3.53;;;1.30;;
13753;SDS011;6948;51.216;6.778;2023-04-24T08:02:15;3.00;;;1.10;;
13753;SDS011;6948;51.216;6.778;2023-04-24T08:04:41;3.07;;;1.33;;
13753;SDS011;6948;51.216;6.778;2023-04-24T08:07:07;2.80;;;1.10;;
13753;SDS011;6948;51.216;6.778;2023-04-24T08:09:33;1.20;;;1.10;;
13753;SDS011;6948;51.216;6.778;2023-04-24T08:11:59;1.87;;;1.20;;
13753;SDS011;6948;51.216;6.778;2023-04-24T08:14:24;2.03;;;1.33;;
13753;SDS011;6948;51.216;6.778;2023-04-24T08:16:50;3.13;;;1.60;;
13753;SDS011;6948;51.216;6.778;2023-04-24T08:19:18;1.53;;;1.30;;
13753;SDS011;6948;51.216;6.778;2023-04-24T08:21:44;1.90;;;1.60;;
13753;SDS011;6948;51.216;6.778;2023-04-24T08:24:10;2.87;;;1.83;;
13753;SDS011;6948;51.216;6.778;2023-04-24T08:26:35;2.97;;;1.87;;
13753;SDS011;6948;51.216;6.778;2023-04-24T08:29:01;3.10;;;2.50;;
13753;SDS011;6948;51.216;6.778;2023-04-24T08:31:27;4.20;;;2.60;;
13753;SDS011;6948;51.216;6.778;2023-04-24T08:33:52;4.23;;;3.30;;
13753;SDS011;6948;51.216;6.778;2023-04-24T08:36:18;3.50;;;2.70;;
13753;SDS011;6948;51.216;6.778;2023-04-24T08:38:44;3.20;;;2.90;;
13753;SDS011;6948;51.216;6.778;2023-04-24T08:41:11;4.37;;;3.20;;
13753;SDS011;6948;51.216;6.778;2023-04-24T08:43:39;7.13;;;6.40;;
13753;SDS011;6948;51.216;6.778;2023-04-24T08:46:05;6.03;;;3.83;;
13753;SDS011;6948;51.216;6.778;2023-04-24T08:48:31;7.57;;;3.97;;
13753;SDS011;6948;51.216;6.778;2023-04-24T08:50:58;6.30;;;3.30;;
13753;SDS011;6948;51.216;6.778;2023-04-24T08:53:24;4.67;;;4.00;;
13753;SDS011;6948;51.216;6.778;2023-04-24T08:55:50;5.73;;;4.10;;
13753;SDS011;6948;51.216;6.778;2023-04-24T08:58:18;6.33;;;4.57;;
13753;SDS011;6948;51.216;6.778;2023-04-24T09:00:44;4.83;;;4.40;;
13753;SDS011;6948;51.216;6.778;2023-04-24T09:03:13;4.73;;;3.33;;
13753;SDS011;6948;51.216;6.778;2023-04-24T09:05:40;4.57;;;3.30;;
13753;SDS011;6948;51.216;6.778;2023-04-24T09:08:10;4.50;;;2.70;;
13753;SDS011;6948;51.216;6.778;2023-04-24T09:10:39;4.43;;;3.00;;
13753;SDS011;6948;51.216;6.778;2023-04-24T09:13:06;2.80;;;2.60;;
13753;SDS011;6948;51.216;6.778;2023-04-24T09:15:34;4.27;;;3.20;;
13753;SDS011;6948;51.216;6.778;2023-04-24T09:18:00;4.47;;;3.37;;
13753;SDS011;6948;51.216;6.778;2023-04-24T09:20:26;3.97;;;3.40;;
13753;SDS011;6948;51.216;6.778;2023-04-24T09:22:54;4.57;;;3.40;;
13753;SDS011;6948;51.216;6.778;2023-04-24T09:25:21;4.10;;;3.70;;
13753;SDS011;6948;51.216;6.778;2023-04-24T09:27:47;7.30;;;4.60;;
13753;SDS011;6948;51.216;6.778;2023-04-24T09:30:13;5.83;;;4.10;;
13753;SDS011;6948;51.216;6.778;2023-04-24T09:32:45;3.80;;;3.43;;
13753;SDS011;6948;51.216;6.778;2023-04-24T09:35:12;6.83;;;3.90;;
13753;SDS011;6948;51.216;6.778;2023-04-24T09:37:40;5.83;;;4.27;;
13753;SDS011;6948;51.216;6.778;2023-04-24T09:40:08;6.73;;;4.37;;
13753;SDS011;6948;51.216;6.778;2023-04-24T09:42:36;5.00;;;3.83;;
13753;SDS011;6948;51.216;6.778;2023-04-24T09:45:02;6.03;;;4.10;;
13753;SDS011;6948;51.216;6.778;2023-04-24T09:47:30;6.63;;;4.13;;
13753;SDS011;6948;51.216;6.778;2023-04-24T09:50:08;5.03;;;3.97;;
13753;SDS011;6948;51.216;6.778;2023-04-24T09:52:39;7.97;;;4.77;;
13753;SDS011;6948;51.216;6.778;2023-04-24T09:55:10;8.63;;;5.43;;
13753;SDS011;6948;51.216;6.778;2023-04-24T09:57:46;7.90;;;6.00;;
13753;SDS011;6948;51.216;6.778;2023-04-24T10:00:18;10.73;;;6.23;;
13753;SDS011;6948;51.216;6.778;2023-04-24T10:02:49;9.70;;;6.27;;
13753;SDS011;6948;51.216;6.778;2023-04-24T10:05:15;8.97;;;6.53;;
13753;SDS011;6948;51.216;6.778;2023-04-24T10:07:42;11.63;;;7.30;;
13753;SDS011;6948;51.216;6.778;2023-04-24T10:10:08;8.67;;;6.40;;
13753;SDS011;6948;51.216;6.778;2023-04-24T10:12:34;8.87;;;6.67;;
13753;SDS011;6948;51.216;6.778;2023-04-24T10:15:01;10.47;;;7.30;;
13753;SDS011;6948;51.216;6.778;2023-04-24T10:17:27;12.67;;;6.63;;
13753;SDS011;6948;51.216;6.778;2023-04-24T10:19:54;11.33;;;6.57;;
13753;SDS011;6948;51.216;6.778;2023-04-24T10:22:20;11.63;;;6.80;;
13753;SDS011;6948;51.216;6.778;2023-04-24T10:24:47;15.17;;;7.20;;
13753;SDS011;6948;51.216;6.778;2023-04-24T10:27:15;11.20;;;6.77;;
13753;SDS011;6948;51.216;6.778;2023-04-24T10:29:41;11.37;;;7.60;;
13753;SDS011;6948;51.216;6.778;2023-04-24T10:32:09;14.40;;;7.23;;
13753;SDS011;6948;51.216;6.778;2023-04-24T10:34:36;10.80;;;6.40;;
13753;SDS011;6948;51.216;6.778;2023-04-24T10:37:02;10.07;;;6.40;;
13753;SDS011;6948;51.216;6.778;2023-04-24T10:39:28;12.13;;;7.10;;
13753;SDS011;6948;51.216;6.778;2023-04-24T10:41:55;12.87;;;6.60;;
13753;SDS011;6948;51.216;6.778;2023-04-24T10:44:23;11.50;;;6.50;;
13753;SDS011;6948;51.216;6.778;2023-04-24T10:46:52;10.43;;;6.57;;
13753;SDS011;6948;51.216;6.778;2023-04-24T10:49:29;12.03;;;6.40;;
13753;SDS011;6948;51.216;6.778;2023-04-24T10:52:00;10.47;;;5.70;;
13753;SDS011;6948;51.216;6.778;2023-04-24T10:54:34;11.93;;;5.00;;
13753;SDS011;6948;51.216;6.778;2023-04-24T11:02:45;10.30;;;4.77;;
13753;SDS011;6948;51.216;6.778;2023-04-24T11:05:15;11.37;;;4.70;;
13753;SDS011;6948;51.216;6.778;2023-04-24T11:10:39;10.30;;;4.50;;
13753;SDS011;6948;51.216;6.778;2023-04-24T11:13:09;10.97;;;4.53;;
13753;SDS011;6948;51.216;6.778;2023-04-24T11:15:34;10.77;;;4.73;;
13753;SDS011;6948;51.216;6.778;2023-04-24T11:18:00;11.30;;;4.70;;
13753;SDS011;6948;51.216;6.778;2023-04-24T11:20:26;13.37;;;4.57;;
13753;SDS011;6948;51.216;6.778;2023-04-24T11:22:52;11.67;;;4.97;;
13753;SDS011;6948;51.216;6.778;2023-04-24T11:25:20;11.73;;;4.77;;
13753;SDS011;6948;51.216;6.778;2023-04-24T11:27:48;10.40;;;4.20;;
13753;SDS011;6948;51.216;6.778;2023-04-24T11:30:19;12.00;;;4.07;;
13753;SDS011;6948;51.216;6.778;2023-04-24T11:32:49;12.07;;;4.30;;
13753;SDS011;6948;51.216;6.778;2023-04-24T11:35:17;13.80;;;4.97;;
13753;SDS011;6948;51.216;6.778;2023-04-24T11:37:46;9.67;;;4.30;;
13753;SDS011;6948;51.216;6.778;2023-04-24T11:40:15;9.87;;;4.33;;
13753;SDS011;6948;51.216;6.778;2023-04-24T11:42:43;10.40;;;4.47;;
13753;SDS011;6948;51.216;6.778;2023-04-24T11:45:14;11.40;;;4.20;;
13753;SDS011;6948;51.216;6.778;2023-04-24T11:47:41;9.37;;;3.97;;
13753;SDS011;6948;51.216;6.778;2023-04-24T11:50:09;12.07;;;4.13;;
13753;SDS011;6948;51.216;6.778;2023-04-24T11:52:38;11.80;;;4.43;;
13753;SDS011;6948;51.216;6.778;2023-04-24T11:55:07;12.57;;;4.50;;
13753;SDS011;6948;51.216;6.778;2023-04-24T11:57:49;7.93;;;4.10;;
13753;SDS011;6948;51.216;6.778;2023-04-24T12:03:02;15.60;;;4.37;;
13753;SDS011;6948;51.216;6.778;2023-04-24T12:05:30;15.20;;;4.40;;
13753;SDS011;6948;51.216;6.778;2023-04-24T12:07:56;13.13;;;4.53;;
13753;SDS011;6948;51.216;6.778;2023-04-24T12:10:22;10.93;;;4.10;;
13753;SDS011;6948;51.216;6.778;2023-04-24T12:12:49;10.60;;;3.70;;
13753;SDS011;6948;51.216;6.778;2023-04-24T12:15:16;13.53;;;4.37;;
13753;SDS011;6948;51.216;6.778;2023-04-24T12:17:44;12.53;;;5.07;;
13753;SDS011;6948;51.216;6.778;2023-04-24T12:20:11;9.43;;;3.83;;
13753;SDS011;6948;51.216;6.778;2023-04-24T12:25:23;10.07;;;3.30;;
13753;SDS011;6948;51.216;6.778;2023-04-24T12:27:52;7.57;;;3.17;;
13753;SDS011;6948;51.216;6.778;2023-04-24T12:30:19;11.57;;;3.63;;
13753;SDS011;6948;51.216;6.778;2023-04-24T12:32:46;10.43;;;3.20;;
13753;SDS011;6948;51.216;6.778;2023-04-24T12:35:13;9.80;;;3.10;;
13753;SDS011;6948;51.216;6.778;2023-04-24T12:37:47;8.97;;;2.70;;
13753;SDS011;6948;51.216;6.778;2023-04-24T12:40:13;10.43;;;3.10;;
13753;SDS011;6948;51.216;6.778;2023-04-24T12:42:42;6.87;;;2.50;;
13753;SDS011;6948;51.216;6.778;2023-04-24T12:45:09;7.20;;;2.37;;
13753;SDS011;6948;51.216;6.778;2023-04-24T12:47:37;5.00;;;2.40;;
13753;SDS011;6948;51.216;6.778;2023-04-24T12:50:04;6.27;;;2.30;;
13753;SDS011;6948;51.216;6.778;2023-04-24T12:52:30;5.40;;;2.00;;
13753;SDS011;6948;51.216;6.778;2023-04-24T12:54:57;4.50;;;2.10;;
13753;SDS011;6948;51.216;6.778;2023-04-24T12:57:24;4.00;;;2.13;;
13753;SDS011;6948;51.216;6.778;2023-04-24T12:59:53;4.77;;;1.90;;
13753;SDS011;6948;51.216;6.778;2023-04-24T13:02:19;3.23;;;1.70;;
13753;SDS011;6948;51.216;6.778;2023-04-24T13:04:47;4.67;;;1.80;;
13753;SDS011;6948;51.216;6.778;2023-04-24T13:07:13;5.33;;;1.70;;
13753;SDS011;6948;51.216;6.778;2023-04-24T13:09:39;4.00;;;1.90;;
13753;SDS011;6948;51.216;6.778;2023-04-24T13:12:06;5.50;;;1.70;;
13753;SDS011;6948;51.216;6.778;2023-04-24T13:14:33;4.83;;;2.17;;
13753;SDS011;6948;51.216;6.778;2023-04-24T13:16:59;6.50;;;1.93;;
13753;SDS011;6948;51.216;6.778;2023-04-24T13:19:25;4.73;;;1.80;;
13753;SDS011;6948;51.216;6.778;2023-04-24T13:21:51;4.20;;;1.80;;
13753;SDS011;6948;51.216;6.778;2023-04-24T13:24:18;4.80;;;1.70;;
13753;SDS011;6948;51.216;6.778;2023-04-24T13:26:44;5.70;;;1.70;;
13753;SDS011;6948;51.216;6.778;2023-04-24T13:29:10;5.23;;;1.83;;
13753;SDS011;6948;51.216;6.778;2023-04-24T13:31:36;5.60;;;2.07;;
13753;SDS011;6948;51.216;6.778;2023-04-24T13:34:02;3.67;;;2.17;;
13753;SDS011;6948;51.216;6.778;2023-04-24T13:36:28;5.77;;;2.27;;
13753;SDS011;6948;51.216;6.778;2023-04-24T13:38:55;4.77;;;1.80;;
13753;SDS011;6948;51.216;6.778;2023-04-24T13:41:21;6.53;;;2.30;;
13753;SDS011;6948;51.216;6.778;2023-04-24T13:43:47;4.93;;;1.90;;
13753;SDS011;6948;51.216;6.778;2023-04-24T13:46:12;4.70;;;2.10;;
13753;SDS011;6948;51.216;6.778;2023-04-24T13:48:38;5.47;;;1.83;;
13753;SDS011;6948;51.216;6.778;2023-04-24T13:51:03;2.73;;;1.60;;
13753;SDS011;6948;51.216;6.778;2023-04-24T13:53:29;5.30;;;2.03;;
13753;SDS011;6948;51.216;6.778;2023-04-24T13:55:55;5.87;;;1.93;;
13753;SDS011;6948;51.216;6.778;2023-04-24T13:58:20;3.83;;;2.30;;
13753;SDS011;6948;51.216;6.778;2023-04-24T14:00:46;6.87;;;2.53;;
13753;SDS011;6948;51.216;6.778;2023-04-24T14:03:12;5.20;;;2.07;;
13753;SDS011;6948;51.216;6.778;2023-04-24T14:05:37;5.97;;;2.00;;
13753;SDS011;6948;51.216;6.778;2023-04-24T14:08:03;5.70;;;2.07;;
13753;SDS011;6948;51.216;6.778;2023-04-24T14:10:29;7.77;;;2.20;;
13753;SDS011;6948;51.216;6.778;2023-04-24T14:12:55;6.50;;;2.00;;
13753;SDS011;6948;51.216;6.778;2023-04-24T14:15:21;5.60;;;2.40;;
13753;SDS011;6948;51.216;6.778;2023-04-24T14:17:47;5.50;;;2.10;;
13753;SDS011;6948;51.216;6.778;2023-04-24T14:20:13;4.60;;;2.20;;
13753;SDS011;6948;51.216;6.778;2023-04-24T14:22:39;5.93;;;2.20;;
13753;SDS011;6948;51.216;6.778;2023-04-24T14:25:05;5.80;;;2.10;;
13753;SDS011;6948;51.216;6.778;2023-04-24T14:27:31;5.50;;;2.00;;
13753;SDS011;6948;51.216;6.778;2023-04-24T14:29:57;5.60;;;1.80;;
13753;SDS011;6948;51.216;6.778;2023-04-24T14:32:23;4.13;;;1.73;;
13753;SDS011;6948;51.216;6.778;2023-04-24T14:34:48;4.13;;;2.20;;
13753;SDS011;6948;51.216;6.778;2023-04-24T14:37:14;6.43;;;1.97;;
13753;SDS011;6948;51.216;6.778;2023-04-24T14:39:40;3.60;;;1.60;;
13753;SDS011;6948;51.216;6.778;2023-04-24T14:42:06;3.37;;;1.60;;
13753;SDS011;6948;51.216;6.778;2023-04-24T14:44:31;2.70;;;1.67;;
13753;SDS011;6948;51.216;6.778;2023-04-24T14:46:58;3.67;;;1.60;;
13753;SDS011;6948;51.216;6.778;2023-04-24T14:49:23;2.87;;;1.67;;
13753;SDS011;6948;51.216;6.778;2023-04-24T14:51:49;5.97;;;1.80;;
13753;SDS011;6948;51.216;6.778;2023-04-24T14:54:15;6.73;;;1.70;;
13753;SDS011;6948;51.216;6.778;2023-04-24T14:56:41;6.13;;;2.10;;
13753;SDS011;6948;51.216;6.778;2023-04-24T14:59:08;6.20;;;1.90;;
13753;SDS011;6948;51.216;6.778;2023-04-24T15:01:34;5.27;;;2.10;;
13753;SDS011;6948;51.216;6.778;2023-04-24T15:03:59;2.97;;;1.60;;
13753;SDS011;6948;51.216;6.778;2023-04-24T15:06:25;3.07;;;1.57;;